Time;durP1;ratioP1;P1;durP2;ratioP2;P2;SDS_P1;SDS_P2;PMS_P1;PMS_P2;Temp;Humidity;BMP_temperature;BMP_pressure;BME280_temperature;BME280_humidity;BME280_pressure;Samples;Min_cycle;Max_cycle;Signal;HPM_P1;HPM_P2
2021/11/10 00:02:06;;;;;;;7.30;5.62;;;;;;;18.12;70.23;102816.75;144992;701;6002;-84
2021/11/10 00:04:33;;;;;;;9.75;5.62;;;;;;;18.19;69.92;102807.31;144992;621;6002;-85
2021/11/10 00:07:01;;;;;;;5.97;4.53;;;;;;;18.24;69.34;102817.97;144992;569;6002;-85
2021/11/10 00:09:27;;;;;;;6.37;5.47;;;;;;;18.26;69.66;102817.19;144992;563;6002;-85
2021/11/10 00:12:09;;;;;;;7.28;5.68;;;;;;;18.28;68.92;102822.50;144992;572;6002;-85
2021/11/10 00:14:38;;;;;;;7.67;4.83;;;;;;;18.35;69.04;102829.72;144992;603;6002;-86
2021/11/10 00:17:05;;;;;;;7.32;4.85;;;;;;;18.35;67.98;102829.72;144992;584;6002;-86
2021/11/10 00:19:31;;;;;;;9.93;5.20;;;;;;;18.24;68.53;102823.25;144992;603;6002;-84
2021/11/10 00:21:59;;;;;;;8.13;5.18;;;;;;;18.27;68.66;102831.22;144992;716;6002;-87
2021/11/10 00:24:26;;;;;;;7.20;5.40;;;;;;;18.31;68.23;102825.22;144992;600;6002;-84
2021/11/10 00:26:52;;;;;;;10.02;5.90;;;;;;;18.37;68.28;102830.66;144992;620;6002;-82
2021/11/10 00:29:19;;;;;;;7.75;5.20;;;;;;;18.42;68.03;102829.09;144992;593;6002;-85
2021/11/10 00:31:46;;;;;;;7.32;5.40;;;;;;;18.47;67.81;102818.72;144992;605;6002;-85
2021/11/10 00:34:13;;;;;;;8.77;5.85;;;;;;;18.34;67.24;102822.69;144992;607;6002;-84
2021/11/10 00:36:41;;;;;;;10.00;6.97;;;;;;;18.33;68.35;102820.03;144992;570;6002;-82
2021/11/10 00:39:08;;;;;;;9.45;6.50;;;;;;;18.32;68.15;102808.59;144992;603;6002;-84
2021/11/10 00:41:34;;;;;;;10.43;6.57;;;;;;;18.33;68.06;102817.38;144992;596;6002;-84
2021/11/10 00:44:01;;;;;;;9.10;6.43;;;;;;;18.35;67.85;102807.81;144992;588;6002;-84
2021/11/10 00:46:32;;;;;;;9.98;6.75;;;;;;;18.37;68.10;102806.09;144992;589;6002;-84
2021/11/10 00:49:00;;;;;;;9.18;7.53;;;;;;;18.40;68.01;102807.09;144992;625;6002;-83
2021/11/10 00:51:28;;;;;;;10.38;7.68;;;;;;;18.41;67.94;102801.00;144992;642;6002;-83
2021/11/10 00:53:57;;;;;;;11.73;7.97;;;;;;;18.38;68.19;102802.66;144992;589;6002;-85
2021/11/10 00:56:26;;;;;;;12.23;7.60;;;;;;;18.36;68.21;102802.59;144992;609;6002;-84
2021/11/10 00:58:53;;;;;;;12.32;7.75;;;;;;;18.35;68.26;102808.69;144992;616;6002;-85
2021/11/10 01:01:33;;;;;;;;;;;;;;;;;;;;;
2021/11/10 01:04:16;;;;;;;10.45;8.48;;;;;;;18.36;68.44;102799.06;144992;534;6002;-83
2021/11/10 01:09:18;;;;;;;12.02;7.85;;;;;;;18.52;68.65;102805.66;144991;605;6002;-85
2021/11/10 01:11:47;;;;;;;10.50;7.57;;;;;;;18.52;68.65;102797.78;144992;580;6002;-84
2021/11/10 01:14:15;;;;;;;10.73;7.45;;;;;;;18.50;68.60;102805.66;144992;567;6002;-84
2021/11/10 01:16:43;;;;;;;11.60;7.50;;;;;;;18.40;68.60;102799.19;144992;611;6002;-86
2021/11/10 01:19:10;;;;;;;7.93;6.32;;;;;;;18.27;68.79;102799.69;144992;569;6002;-84
2021/11/10 01:21:38;;;;;;;9.77;7.37;;;;;;;18.25;68.66;102791.75;144992;627;6002;-84
2021/11/10 01:24:05;;;;;;;11.70;6.53;;;;;;;18.26;68.85;102803.13;144992;610;6002;-84
2021/11/10 01:26:33;;;;;;;8.77;6.50;;;;;;;18.28;68.55;102804.09;144992;569;6002;-85
2021/11/10 01:28:59;;;;;;;9.13;6.07;;;;;;;18.29;68.71;102795.34;144992;565;6002;-85
2021/11/10 01:31:26;;;;;;;7.70;6.37;;;;;;;18.29;68.66;102797.97;144992;569;6002;-84
2021/11/10 01:33:55;;;;;;;6.68;5.95;;;;;;;18.24;68.48;102800.47;144992;622;6002;-84
2021/11/10 01:36:24;;;;;;;9.35;6.68;;;;;;;18.24;68.68;102804.84;144992;606;6002;-86
2021/11/10 01:38:50;;;;;;;8.90;6.28;;;;;;;18.18;68.84;102797.62;144992;614;6002;-84
2021/11/10 01:41:17;;;;;;;10.13;6.07;;;;;;;18.13;68.96;102809.75;144992;589;6002;-84
2021/11/10 01:43:46;;;;;;;7.62;5.90;;;;;;;18.09;69.29;102806.13;144992;643;6002;-83
2021/11/10 01:46:13;;;;;;;6.85;5.62;;;;;;;18.09;69.33;102808.75;144992;569;6002;-85
2021/11/10 01:48:43;;;;;;;7.65;5.32;;;;;;;18.10;69.10;102809.66;144992;569;6002;-84
2021/11/10 01:51:10;;;;;;;6.50;5.07;;;;;;;18.06;69.12;102803.41;144992;614;6002;-85
2021/11/10 01:53:45;;;;;;;7.40;4.90;;;;;;;18.09;69.02;102808.75;144991;613;6002;-81
2021/11/10 01:56:12;;;;;;;6.85;4.97;;;;;;;18.07;69.52;102810.47;144992;573;6002;-84
2021/11/10 01:58:39;;;;;;;6.78;4.93;;;;;;;18.05;69.40;102809.50;144992;587;6002;-84
2021/11/10 02:01:05;;;;;;;6.15;4.82;;;;;;;18.08;69.27;102817.47;144992;609;6002;-85
2021/11/10 02:06:03;;;;;;;5.70;4.25;;;;;;;18.12;69.86;102819.37;144992;596;6002;-86
2021/11/10 02:08:29;;;;;;;6.55;4.90;;;;;;;18.20;68.98;102821.34;144992;574;6002;-83
2021/11/10 02:10:59;;;;;;;9.10;4.80;;;;;;;18.15;69.55;102823.84;144992;609;6002;-84
2021/11/10 02:13:26;;;;;;;6.10;4.25;;;;;;;18.01;70.14;102826.03;144992;575;6002;-85
2021/11/10 02:15:52;;;;;;;8.25;5.00;;;;;;;17.93;70.17;102830.16;144992;591;6002;-85
2021/11/10 02:18:19;;;;;;;6.18;4.72;;;;;;;17.89;69.98;102825.63;144992;582;6002;-85
2021/11/10 02:20:50;;;;;;;6.40;4.68;;;;;;;17.89;70.15;102828.25;144992;598;6011;-85
2021/11/10 02:23:18;;;;;;;6.07;4.72;;;;;;;17.87;69.99;102837.78;144992;575;6002;-85
2021/11/10 02:25:45;;;;;;;8.05;4.90;;;;;;;17.90;70.15;102838.81;144992;573;6002;-87
2021/11/10 02:28:11;;;;;;;7.18;4.68;;;;;;;17.92;69.81;102838.84;144992;575;6002;-85
2021/11/10 02:30:38;;;;;;;8.68;5.05;;;;;;;17.88;70.04;102839.59;144992;570;6002;-83
2021/11/10 02:33:04;;;;;;;7.47;5.15;;;;;;;17.81;70.35;102829.69;144992;587;6002;-83
2021/11/10 02:35:32;;;;;;;9.07;5.25;;;;;;;17.79;70.42;102827.03;144992;579;6002;-83
2021/11/10 02:38:05;;;;;;;7.65;5.15;;;;;;;17.82;70.55;102834.13;144992;657;6002;-86
2021/11/10 02:40:36;;;;;;;7.30;4.70;;;;;;;17.87;70.20;102848.28;144992;619;6002;-83
2021/11/10 02:43:04;;;;;;;5.90;4.10;;;;;;;17.98;70.11;102857.47;144992;622;6002;-89
2021/11/10 02:45:30;;;;;;;6.47;3.90;;;;;;;18.09;69.44;102868.34;144992;625;6002;-85
2021/11/10 02:47:58;;;;;;;4.45;3.78;;;;;;;18.08;69.02;102866.53;144992;569;6002;-86
2021/11/10 02:50:29;;;;;;;4.40;3.60;;;;;;;17.84;68.01;102869.22;144992;575;6002;-85
2021/11/10 02:52:55;;;;;;;4.95;3.45;;;;;;;17.70;69.92;102866.09;144992;582;6002;-84
2021/11/10 02:55:22;;;;;;;4.85;3.22;;;;;;;17.62;70.22;102865.84;144992;595;6002;-86
2021/11/10 02:57:48;;;;;;;4.55;3.45;;;;;;;17.64;70.15;102865.88;144992;648;6002;-84
2021/11/10 03:00:15;;;;;;;5.22;3.35;;;;;;;17.68;69.60;102863.41;144992;597;6002;-83
2021/11/10 03:02:42;;;;;;;5.12;3.97;;;;;;;17.70;69.61;102869.59;144991;580;6002;-83
2021/11/10 03:05:10;;;;;;;5.18;3.17;;;;;;;17.66;69.82;102873.00;144992;564;6002;-84
2021/11/10 03:07:37;;;;;;;4.10;3.42;;;;;;;17.62;69.79;102878.97;144992;569;6002;-86
2021/11/10 03:10:04;;;;;;;5.07;3.78;;;;;;;17.58;70.14;102887.59;144993;584;6002;-84
2021/11/10 03:12:31;;;;;;;5.35;3.47;;;;;;;17.55;69.86;102887.47;144993;642;6002;-84
2021/11/10 03:14:57;;;;;;;4.18;3.53;;;;;;;17.52;70.33;102909.25;144993;640;6002;-84
2021/11/10 03:17:24;;;;;;;4.50;3.53;;;;;;;17.55;70.11;102901.50;144993;660;6002;-87
2021/11/10 03:19:54;;;;;;;4.10;3.40;;;;;;;17.53;70.44;102904.87;144993;580;6002;-84
2021/11/10 03:22:21;;;;;;;6.28;3.87;;;;;;;17.43;70.70;102914.19;144993;569;6002;-84
2021/11/10 03:24:49;;;;;;;4.53;3.33;;;;;;;17.43;70.80;102913.28;144993;582;6002;-85
2021/11/10 03:27:17;;;;;;;8.27;4.80;;;;;;;17.23;70.99;102910.84;144993;661;6002;-87
2021/11/10 03:29:50;;;;;;;8.25;4.60;;;;;;;17.22;71.52;102922.16;144993;573;6002;-85
2021/11/10 03:32:18;;;;;;;11.52;5.55;;;;;;;17.14;71.15;102908.75;144993;596;6002;-84
2021/11/10 03:34:46;;;;;;;10.57;5.53;;;;;;;17.15;71.25;102921.03;144993;586;6002;-84
2021/11/10 03:37:14;;;;;;;10.15;5.68;;;;;;;17.21;71.05;102929.16;144993;582;6002;-85
2021/11/10 03:39:40;;;;;;;9.55;5.28;;;;;;;17.22;71.05;102927.41;144993;599;6002;-84
2021/11/10 03:42:07;;;;;;;12.57;4.93;;;;;;;17.23;70.73;102929.22;144991;602;6002;-87
2021/11/10 03:44:34;;;;;;;8.25;4.95;;;;;;;17.29;70.50;102926.81;144992;645;6002;-84
2021/11/10 03:47:00;;;;;;;7.90;4.60;;;;;;;17.34;70.29;102933.12;144992;616;6002;-85
2021/11/10 03:49:27;;;;;;;8.45;4.32;;;;;;;17.20;69.88;102927.34;144992;629;6002;-85
2021/11/10 03:51:57;;;;;;;7.85;4.10;;;;;;;17.25;70.47;102935.41;144991;583;6002;-84
2021/11/10 03:54:24;;;;;;;7.07;3.65;;;;;;;17.26;70.59;102939.81;144992;565;6002;-85
2021/11/10 03:57:07;;;;;;;4.82;3.40;;;;;;;17.36;70.37;102939.31;144993;576;6002;-82
2021/11/10 03:59:39;;;;;;;5.70;3.28;;;;;;;17.47;70.27;102936.22;144992;631;6002;-85
2021/11/10 04:02:08;;;;;;;5.28;2.92;;;;;;;17.54;69.85;102941.72;144993;588;6002;-86
2021/11/10 04:04:34;;;;;;;3.85;2.50;;;;;;;17.43;68.89;102932.56;144993;585;6002;-92
2021/11/10 04:07:12;;;;;;;4.32;2.42;;;;;;;17.40;70.48;102935.97;144993;572;6002;-87
2021/11/10 04:13:00;;;;;;;3.92;2.20;;;;;;;17.65;69.88;102931.59;144993;565;6002;-85
2021/11/10 04:15:36;;;;;;;4.35;2.10;;;;;;;17.77;69.08;102942.56;144993;581;6002;-85
2021/11/10 04:18:05;;;;;;;4.62;2.03;;;;;;;17.71;68.63;102939.69;144993;565;6002;-85
2021/11/10 04:20:33;;;;;;;4.07;2.00;;;;;;;17.74;69.19;102944.19;144993;578;6002;-87
2021/11/10 04:23:04;;;;;;;4.97;1.83;;;;;;;17.79;68.83;102946.97;144993;632;6002;-85
2021/11/10 04:25:30;;;;;;;2.62;1.70;;;;;;;17.81;68.74;102954.06;144993;581;6002;-84
2021/11/10 04:27:57;;;;;;;5.45;1.90;;;;;;;17.82;68.25;102960.22;144993;601;6002;-86
2021/11/10 04:30:25;;;;;;;2.62;1.98;;;;;;;17.68;68.68;102964.97;144993;571;6002;-84
2021/11/10 04:32:55;;;;;;;4.07;1.85;;;;;;;17.72;68.37;102965.16;144993;622;6003;-85
2021/11/10 04:35:21;;;;;;;4.40;1.75;;;;;;;17.70;67.95;102977.31;144993;617;6002;-86
2021/11/10 04:37:48;;;;;;;3.78;1.52;;;;;;;17.71;68.58;102973.84;144993;577;6002;-84
2021/11/10 04:40:15;;;;;;;3.75;1.50;;;;;;;17.72;67.99;102978.28;144993;606;6002;-85
2021/11/10 04:42:42;;;;;;;4.43;1.70;;;;;;;17.62;68.10;102977.88;144993;582;6002;-86
2021/11/10 04:45:19;;;;;;;5.05;1.73;;;;;;;17.55;68.32;102980.28;144993;580;6002;-85
2021/11/10 04:47:47;;;;;;;4.55;1.80;;;;;;;17.46;68.49;102985.19;144993;569;6002;-86
2021/11/10 04:50:15;;;;;;;2.72;1.45;;;;;;;17.40;68.08;102983.25;144994;579;5002;-84
2021/11/10 04:52:42;;;;;;;6.57;2.10;;;;;;;17.41;68.56;102992.00;144993;630;5002;-85
2021/11/10 04:55:09;;;;;;;3.55;1.33;;;;;;;17.34;68.32;102996.13;144994;642;5002;-84
2021/11/10 04:57:36;;;;;;;8.43;2.35;;;;;;;17.35;68.05;102997.91;144994;636;5002;-84
2021/11/10 05:00:04;;;;;;;4.12;1.45;;;;;;;17.35;67.81;102992.66;144994;622;5002;-87
2021/11/10 05:02:31;;;;;;;4.78;1.45;;;;;;;16.94;65.43;102984.09;144994;573;5002;-86
2021/11/10 05:04:59;;;;;;;4.70;2.12;;;;;;;16.91;68.36;102990.91;144994;582;5002;-84
2021/11/10 05:07:26;;;;;;;4.85;1.80;;;;;;;16.92;68.50;102998.84;144994;599;5002;-86
2021/11/10 05:09:55;;;;;;;5.53;1.65;;;;;;;16.87;68.60;103010.91;144994;658;5002;-84
2021/11/10 05:12:23;;;;;;;5.93;1.90;;;;;;;16.73;68.55;103010.28;144994;581;5002;-84
2021/11/10 05:14:52;;;;;;;6.10;1.40;;;;;;;16.76;68.09;103015.66;144994;594;5002;-85
2021/11/10 05:17:20;;;;;;;4.32;1.52;;;;;;;16.82;67.77;103029.03;144994;592;5003;-84
2021/11/10 05:19:47;;;;;;;6.22;1.80;;;;;;;16.85;67.73;103033.53;144994;595;5002;-85
2021/11/10 05:22:14;;;;;;;4.68;1.60;;;;;;;16.78;67.70;103031.47;144994;569;5002;-84
2021/11/10 05:24:41;;;;;;;3.60;1.92;;;;;;;16.59;68.00;103030.72;144994;668;5002;-84
2021/11/10 05:27:08;;;;;;;7.32;2.12;;;;;;;16.55;68.20;103041.03;144994;607;5002;-85
2021/11/10 05:29:35;;;;;;;6.80;2.00;;;;;;;16.50;68.03;103051.31;144994;570;5002;-85
2021/11/10 05:32:04;;;;;;;5.20;2.20;;;;;;;16.48;68.37;103052.94;144994;552;5002;-88
2021/11/10 05:34:31;;;;;;;2.67;1.60;;;;;;;16.44;68.30;103057.19;144994;598;5002;-84
2021/11/10 05:36:58;;;;;;;9.45;1.77;;;;;;;16.39;68.55;103068.31;144994;600;5002;-86
2021/11/10 05:39:26;;;;;;;7.95;2.47;;;;;;;16.42;68.07;103066.72;144994;590;5002;-89
2021/11/10 05:41:53;;;;;;;6.45;2.33;;;;;;;16.31;68.10;103060.13;144994;604;5002;-84
2021/11/10 05:44:20;;;;;;;6.47;2.00;;;;;;;16.28;68.21;103068.72;144994;642;5002;-84
2021/11/10 05:46:46;;;;;;;8.43;2.70;;;;;;;16.29;68.35;103083.63;144994;569;5002;-87
2021/11/10 05:51:45;;;;;;;7.90;2.50;;;;;;;16.31;67.93;103075.84;144994;570;5002;-84
2021/11/10 05:54:12;;;;;;;6.50;2.25;;;;;;;16.32;67.68;103083.78;144994;600;5002;-84
2021/11/10 05:56:41;;;;;;;10.48;2.40;;;;;;;16.18;67.88;103095.38;144994;625;5002;-83
2021/11/10 05:59:09;;;;;;;4.90;2.15;;;;;;;16.17;67.27;103082.19;144994;591;5002;-83
2021/11/10 06:01:39;;;;;;;6.45;2.03;;;;;;;16.02;67.50;103093.78;144994;608;5002;-83
2021/11/10 06:04:08;;;;;;;7.12;2.40;;;;;;;16.01;67.41;103102.47;144994;747;5002;-84
2021/11/10 06:06:35;;;;;;;8.13;2.10;;;;;;;15.96;67.36;103102.25;144994;624;5002;-83
2021/11/10 06:09:01;;;;;;;5.20;2.20;;;;;;;15.97;67.50;103105.75;144994;595;5002;-83
2021/11/10 06:11:28;;;;;;;7.78;2.37;;;;;;;15.97;67.35;103111.00;144994;660;5002;-83
2021/11/10 06:13:54;;;;;;;5.87;1.87;;;;;;;15.82;67.53;103111.19;144994;643;5002;-83
2021/11/10 06:16:21;;;;;;;5.55;2.00;;;;;;;15.85;67.14;103113.06;144994;686;5002;-82
2021/11/10 06:18:55;;;;;;;5.20;1.80;;;;;;;15.81;67.47;103113.75;144994;605;5002;-84
2021/11/10 06:21:26;;;;;;;6.57;2.92;;;;;;;15.71;67.26;103115.00;144994;571;5002;-85
2021/11/10 06:23:52;;;;;;;8.63;2.65;;;;;;;15.82;67.48;103132.16;144994;693;5002;-83
2021/11/10 06:26:19;;;;;;;5.43;2.60;;;;;;;15.64;68.04;103124.31;144994;574;5002;-85
2021/11/10 06:28:45;;;;;;;7.22;2.10;;;;;;;15.82;67.12;103119.06;144994;714;5002;-86
2021/11/10 06:31:12;;;;;;;6.03;1.85;;;;;;;15.77;67.36;103129.31;144994;571;5002;-83
2021/11/10 06:33:41;;;;;;;5.53;2.20;;;;;;;15.81;67.26;103137.31;144994;565;5002;-85
2021/11/10 06:36:11;;;;;;;4.62;1.73;;;;;;;15.80;67.23;103139.06;144994;597;5002;-86
2021/11/10 06:38:38;;;;;;;6.12;2.20;;;;;;;15.81;67.43;103140.81;144994;577;5002;-83
2021/11/10 06:41:05;;;;;;;5.60;1.58;;;;;;;15.83;67.24;103156.59;144994;657;5002;-84
2021/11/10 06:43:32;;;;;;;6.22;1.70;;;;;;;15.80;67.35;103154.75;144994;736;5002;-82
2021/11/10 06:45:58;;;;;;;5.87;1.60;;;;;;;15.84;67.32;103150.56;144994;723;5002;-84
2021/11/10 06:48:25;;;;;;;6.80;2.25;;;;;;;15.85;67.29;103154.97;144994;579;5002;-82
2021/11/10 06:50:51;;;;;;;7.35;2.53;;;;;;;15.93;67.73;103162.34;144994;649;5002;-83
2021/11/10 06:53:18;;;;;;;5.30;1.90;;;;;;;15.96;65.76;103167.75;144994;684;5002;-84
2021/11/10 06:55:48;;;;;;;5.78;2.00;;;;;;;16.00;67.45;103165.25;144994;570;5002;-84
2021/11/10 06:58:15;;;;;;;5.47;2.15;;;;;;;16.03;67.34;103175.87;144994;581;5002;-83
2021/11/10 07:00:41;;;;;;;7.37;2.35;;;;;;;16.13;67.15;103173.78;144994;583;5002;-82
2021/11/10 07:03:08;;;;;;;9.35;2.83;;;;;;;16.19;66.23;103182.72;144994;564;5002;-83
2021/11/10 07:05:35;;;;;;;6.80;2.50;;;;;;;16.16;66.96;103179.97;144994;599;5002;-83
2021/11/10 07:08:02;;;;;;;8.63;2.70;;;;;;;16.08;66.58;103193.63;144994;597;5002;-82
2021/11/10 07:10:33;;;;;;;5.57;2.20;;;;;;;16.07;65.94;103191.81;144994;577;5002;-82
2021/11/10 07:13:07;;;;;;;6.22;2.55;;;;;;;16.01;65.61;103191.53;144994;590;5002;-83
2021/11/10 07:15:42;;;;;;;5.90;2.42;;;;;;;16.16;67.71;103193.06;144994;701;5002;-87
2021/11/10 07:18:11;;;;;;;6.80;2.50;;;;;;;16.26;66.56;103193.56;144994;584;5002;-84
2021/11/10 07:20:49;;;;;;;5.40;2.80;;;;;;;16.39;67.14;103194.12;144994;637;5002;-83
2021/11/10 07:23:16;;;;;;;6.03;2.20;;;;;;;16.45;67.28;103189.19;144994;582;5002;-85
2021/11/10 07:25:43;;;;;;;5.45;2.60;;;;;;;16.52;66.54;103191.22;144994;603;5002;-85
2021/11/10 07:28:19;;;;;;;7.43;2.10;;;;;;;16.56;64.37;103193.16;144994;586;5002;-85
2021/11/10 07:30:51;;;;;;;4.78;2.05;;;;;;;16.55;63.03;103193.97;144994;689;5002;-82
2021/11/10 07:33:20;;;;;;;5.50;1.80;;;;;;;16.71;66.62;103202.53;144994;564;5002;-85
2021/11/10 07:35:47;;;;;;;6.37;2.35;;;;;;;16.81;65.86;103212.59;144994;570;5002;-84
2021/11/10 07:38:14;;;;;;;4.18;2.40;;;;;;;16.74;65.81;103208.81;144994;619;5002;-81
2021/11/10 07:40:41;;;;;;;5.82;2.40;;;;;;;16.64;65.33;103210.13;144994;655;5002;-82
2021/11/10 07:43:21;;;;;;;4.57;2.12;;;;;;;16.66;65.81;103211.09;144994;618;5002;-84
2021/11/10 07:46:01;;;;;;;6.00;2.40;;;;;;;16.68;65.88;103226.91;144993;500;5002;-84
2021/11/10 07:48:28;;;;;;;2.95;1.70;;;;;;;16.63;65.57;103226.69;144994;600;5002;-83
2021/11/10 07:50:54;;;;;;;6.53;2.10;;;;;;;16.61;65.38;103228.34;144994;593;5002;-82
2021/11/10 07:53:25;;;;;;;6.57;2.03;;;;;;;16.59;65.40;103224.78;144994;589;5002;-83
2021/11/10 07:55:51;;;;;;;4.55;2.10;;;;;;;16.64;65.57;103219.75;144994;602;5002;-85
2021/11/10 07:58:21;;;;;;;6.40;2.10;;;;;;;16.70;65.25;103227.84;144994;569;5002;-84
2021/11/10 08:00:47;;;;;;;6.95;1.85;;;;;;;16.72;64.98;103227.91;144994;709;5002;-84
2021/11/10 08:03:14;;;;;;;8.80;3.12;;;;;;;16.68;65.02;103225.16;144994;592;5002;-86
2021/11/10 08:05:42;;;;;;;2.75;1.70;;;;;;;16.66;65.05;103231.19;144994;606;5002;-83
2021/11/10 08:08:21;;;;;;;5.78;2.10;;;;;;;16.71;65.00;103239.25;144994;585;5002;-86
2021/11/10 08:10:48;;;;;;;4.18;1.87;;;;;;;16.71;64.70;103236.63;144994;599;5002;-83
2021/11/10 08:13:15;;;;;;;7.22;2.40;;;;;;;16.74;64.74;103245.53;144993;569;5002;-83
2021/11/10 08:15:42;;;;;;;5.28;2.25;;;;;;;16.74;64.71;103235.03;144994;565;5002;-83
2021/11/10 08:18:09;;;;;;;4.70;2.12;;;;;;;16.70;64.35;103246.19;144994;598;5002;-83
2021/11/10 08:20:38;;;;;;;5.12;2.40;;;;;;;16.75;64.49;103246.41;144994;593;5002;-83
2021/11/10 08:23:05;;;;;;;6.75;2.90;;;;;;;16.73;64.16;103234.97;144994;687;5002;-83
2021/11/10 08:25:32;;;;;;;4.10;1.92;;;;;;;16.75;64.13;103235.94;144994;582;5002;-83
2021/11/10 08:27:58;;;;;;;5.78;2.85;;;;;;;16.73;64.29;103232.34;144994;601;5002;-83
2021/11/10 08:30:25;;;;;;;5.97;3.03;;;;;;;16.75;64.16;103235.94;144994;599;5002;-81
2021/11/10 08:32:53;;;;;;;5.10;2.03;;;;;;;16.81;64.00;103233.56;144994;577;5002;-83
2021/11/10 08:35:21;;;;;;;5.78;2.20;;;;;;;16.88;63.66;103233.06;144994;609;5002;-83
2021/11/10 08:37:53;;;;;;;7.03;2.03;;;;;;;16.93;63.58;103242.03;144994;601;5002;-83
2021/11/10 08:40:20;;;;;;;3.65;1.50;;;;;;;16.97;63.26;103243.97;144994;564;5002;-83
2021/11/10 08:42:51;;;;;;;6.43;2.03;;;;;;;17.00;62.96;103241.44;144994;682;5002;-84
2021/11/10 08:45:22;;;;;;;9.55;2.20;;;;;;;17.00;62.94;103246.69;144994;585;5002;-83
2021/11/10 08:47:51;;;;;;;5.03;2.35;;;;;;;16.79;60.11;103238.75;144994;744;5002;-82
2021/11/10 08:50:21;;;;;;;6.70;2.72;;;;;;;16.78;63.43;103236.97;144994;646;5002;-82
2021/11/10 08:52:49;;;;;;;4.35;2.10;;;;;;;16.74;62.29;103237.66;144994;670;5002;-83
2021/11/10 08:55:17;;;;;;;6.47;1.90;;;;;;;16.76;63.51;103238.62;144994;569;5002;-82
2021/11/10 08:57:46;;;;;;;7.35;1.75;;;;;;;16.79;63.39;103236.13;144994;585;5002;-85
2021/11/10 09:00:21;;;;;;;4.12;2.00;;;;;;;16.89;63.42;103228.69;144994;600;5002;-83
2021/11/10 09:02:49;;;;;;;5.78;1.83;;;;;;;17.03;63.00;103243.31;144994;570;5002;-82
2021/11/10 09:05:16;;;;;;;4.12;2.00;;;;;;;17.00;61.03;103244.06;144994;598;5002;-83
2021/11/10 09:07:43;;;;;;;5.35;2.10;;;;;;;17.04;62.89;103246.00;144994;594;5002;-82
2021/11/10 09:10:13;;;;;;;6.68;2.40;;;;;;;17.10;62.55;103247.09;144994;590;5002;-81
2021/11/10 09:12:41;;;;;;;8.38;2.65;;;;;;;17.12;62.00;103248.97;144994;594;5002;-82
2021/11/10 09:15:10;;;;;;;14.98;8.63;;;;;;;17.10;61.89;103254.97;144994;569;5002;-82
2021/11/10 09:17:40;;;;;;;5.22;2.30;;;;;;;16.92;57.01;103244.56;144994;583;5002;-83
2021/11/10 09:20:18;;;;;;;8.98;2.53;;;;;;;16.87;61.83;103253.13;144994;601;4566;-82
2021/11/10 09:22:45;;;;;;;5.50;3.15;;;;;;;16.92;61.53;103250.72;144994;681;4568;-82
2021/11/10 09:25:17;;;;;;;7.05;3.33;;;;;;;16.90;61.62;103248.88;144994;674;4572;-82
2021/11/10 09:27:44;;;;;;;5.28;2.40;;;;;;;16.91;61.65;103238.44;144993;577;6002;-82
2021/11/10 09:30:14;;;;;;;4.97;2.50;;;;;;;16.96;61.75;103247.41;144992;576;6002;-81
2021/11/10 09:32:42;;;;;;;5.28;1.95;;;;;;;16.97;61.67;103251.84;144992;571;6002;-82
2021/11/10 09:35:11;;;;;;;4.80;1.73;;;;;;;16.97;61.57;103251.84;144992;581;6002;-82
2021/11/10 09:37:39;;;;;;;4.25;1.73;;;;;;;16.97;61.71;103241.34;144992;634;6002;-82
2021/11/10 09:40:10;;;;;;;6.57;2.08;;;;;;;16.89;61.03;103239.19;144992;570;6002;-83
2021/11/10 09:42:37;;;;;;;6.68;2.40;;;;;;;16.88;61.76;103238.31;144992;582;6002;-83
2021/11/10 09:45:06;;;;;;;7.15;2.50;;;;;;;16.93;61.68;103243.75;144992;587;6002;-83
2021/11/10 09:47:33;;;;;;;4.60;2.17;;;;;;;16.95;61.71;103242.97;144992;611;6002;-82
2021/11/10 09:50:00;;;;;;;6.93;2.10;;;;;;;17.03;61.43;103238.06;144992;592;6002;-83
2021/11/10 09:52:34;;;;;;;3.03;1.52;;;;;;;16.80;59.74;103237.94;144992;578;6002;-83
2021/11/10 09:55:07;;;;;;;4.87;1.98;;;;;;;16.81;62.01;103236.19;144992;583;6002;-83
2021/11/10 09:57:41;;;;;;;5.78;2.08;;;;;;;16.87;62.10;103233.88;144992;694;6002;-81
2021/11/10 10:00:12;;;;;;;4.35;1.30;;;;;;;16.81;61.17;103228.31;144992;569;6002;-84
2021/11/10 10:02:41;;;;;;;2.72;1.42;;;;;;;16.81;58.17;103215.22;144992;594;6002;-83
2021/11/10 10:05:09;;;;;;;18.55;9.98;;;;;;;16.79;60.86;103212.53;144992;579;6002;-83
2021/11/10 10:07:37;;;;;;;9.63;5.40;;;;;;;16.69;56.12;103215.59;144992;569;6002;-83
2021/11/10 10:10:05;;;;;;;7.35;4.65;;;;;;;16.68;57.88;103219.91;144992;598;6002;-83
2021/11/10 10:12:31;;;;;;;15.43;11.12;;;;;;;16.53;57.65;103214.00;144992;592;6002;-81
2021/11/10 10:15:00;;;;;;;4.37;2.12;;;;;;;16.26;55.28;103203.16;144992;655;6002;-83
2021/11/10 10:17:59;;;;;;;;;;;;;;;;;;;;;
2021/11/10 10:20:57;;;;;;;3.80;1.62;;;;;;;16.25;56.74;103202.25;144992;595;6004;-84
2021/11/10 10:23:44;;;;;;;2.72;1.40;;;;;;;16.21;55.12;103194.19;144992;578;6004;-83
2021/11/10 10:26:19;;;;;;;4.65;2.70;;;;;;;16.38;57.69;103198.47;144992;566;6004;-81
2021/11/10 10:28:50;;;;;;;4.62;1.48;;;;;;;16.44;57.12;103190.00;144992;579;6004;-83
2021/11/10 10:31:22;;;;;;;3.12;1.25;;;;;;;16.38;53.69;103187.09;144992;626;6004;-82
2021/11/10 10:33:52;;;;;;;2.37;0.90;;;;;;;16.29;56.08;103198.97;144992;586;6004;-83
2021/11/10 10:36:25;;;;;;;2.72;1.20;;;;;;;16.04;51.18;103183.81;144992;626;6004;-82
2021/11/10 10:38:54;;;;;;;3.00;1.10;;;;;;;16.16;54.36;103178.22;144992;576;6004;-82
2021/11/10 10:41:33;;;;;;;3.67;1.40;;;;;;;16.09;55.98;103191.91;144992;686;6004;-83
2021/11/10 10:44:10;;;;;;;3.42;1.70;;;;;;;16.12;55.39;103205.16;144992;577;6004;-80
2021/11/10 10:46:41;;;;;;;8.90;2.25;;;;;;;16.30;55.70;103184.12;144992;589;6004;-82
2021/11/10 10:49:32;;;;;;;5.40;2.22;;;;;;;16.46;56.29;103188.31;144992;600;6004;-80
2021/11/10 10:52:18;;;;;;;3.87;1.40;;;;;;;16.54;52.73;103178.19;144992;576;6004;-81
2021/11/10 10:54:47;;;;;;;2.62;1.70;;;;;;;16.65;55.79;103171.69;144991;597;6000;-81
2021/11/10 10:57:22;;;;;;;4.35;1.98;;;;;;;16.62;54.22;103168.91;144992;589;6002;-83
2021/11/10 11:00:19;;;;;;;7.00;2.55;;;;;;;16.48;55.49;103158.75;144992;643;6002;-82
2021/11/10 11:02:45;;;;;;;6.82;2.60;;;;;;;16.49;55.06;103162.25;144992;592;6004;-82
2021/11/10 11:05:38;;;;;;;5.10;2.30;;;;;;;16.58;56.26;103159.16;144992;576;6004;-82
2021/11/10 11:08:40;;;;;;;5.37;1.80;;;;;;;16.56;55.67;103161.69;144992;699;6002;-83
2021/11/10 11:11:39;;;;;;;4.25;1.87;;;;;;;16.41;53.95;103154.03;144992;572;6002;-82
2021/11/10 11:14:27;;;;;;;6.00;2.80;;;;;;;16.36;55.49;103146.81;144992;657;6002;-81
2021/11/10 11:17:04;;;;;;;5.47;1.77;;;;;;;16.31;53.96;103149.22;144992;571;6002;-83
2021/11/10 11:19:34;;;;;;;6.25;2.50;;;;;;;16.41;55.13;103161.91;144992;626;6002;-82
2021/11/10 11:22:01;;;;;;;3.83;1.70;;;;;;;16.25;55.76;103147.22;144992;630;6002;-83
2021/11/10 11:24:36;;;;;;;7.28;2.10;;;;;;;16.15;55.35;103158.13;144992;587;6002;-82
2021/11/10 11:27:10;;;;;;;;;;;;;;;15.88;54.87;103158.63;144997;906;6002;-82
2021/11/10 11:29:37;;;;;;;5.00;1.98;;;;;;;15.84;56.12;103151.44;144997;607;6002;-83
2021/11/10 11:32:19;;;;;;;9.13;2.10;;;;;;;15.76;56.12;103151.13;144992;564;6002;-83
2021/11/10 11:34:53;;;;;;;5.30;2.30;;;;;;;15.65;56.01;103143.53;144992;631;6002;-83
2021/11/10 11:37:20;;;;;;;;;;;;;;;15.53;55.92;103147.34;144997;907;6002;-81
2021/11/10 11:39:47;;;;;;;5.87;2.00;;;;;;;15.43;55.83;103139.91;144997;566;6002;-81
2021/11/10 11:42:16;;;;;;;4.50;2.00;;;;;;;15.38;55.22;103144.91;144992;598;6002;-82
2021/11/10 11:44:47;;;;;;;4.07;2.05;;;;;;;15.33;55.13;103145.50;144992;603;6002;-81
2021/11/10 11:47:18;;;;;;;3.85;1.55;;;;;;;15.28;56.08;103157.47;144992;606;6002;-82
2021/11/10 11:49:47;;;;;;;6.18;1.83;;;;;;;15.34;55.84;103142.94;144992;648;6002;-83
2021/11/10 11:52:17;;;;;;;5.50;1.90;;;;;;;15.49;55.84;103153.25;144992;585;6002;-83
2021/11/10 11:54:49;;;;;;;3.20;1.80;;;;;;;15.53;55.94;103144.75;144992;612;6002;-83
2021/11/10 11:57:21;;;;;;;5.78;2.20;;;;;;;15.59;55.12;103139.78;144992;585;6002;-82
2021/11/10 11:59:51;;;;;;;4.37;2.00;;;;;;;15.65;55.54;103146.13;144992;565;6002;-85